createdAt,value
2019-04-05T00:01:16.363Z,7.84
2019-04-05T00:03:50.066Z,7.87
2019-04-05T00:06:37.064Z,7.93
2019-04-05T00:09:07.471Z,7.82
2019-04-05T00:11:49.408Z,7.87
2019-04-05T00:14:23.477Z,7.73
2019-04-05T00:16:49.592Z,7.90
2019-04-05T00:19:21.915Z,7.67
2019-04-05T00:21:52.888Z,7.69
2019-04-05T00:24:22.138Z,7.67
2019-04-05T00:27:00.605Z,7.55
2019-04-05T00:29:36.057Z,7.60
2019-04-05T00:32:12.789Z,7.54
2019-04-05T00:35:05.688Z,7.56
2019-04-05T00:37:38.055Z,7.61
2019-04-05T00:40:34.509Z,7.73
2019-04-05T00:43:04.217Z,7.78
2019-04-05T00:45:41.178Z,7.52
2019-04-05T00:48:10.455Z,7.56
2019-04-05T00:50:57.435Z,7.58
2019-04-05T00:53:38.598Z,7.83
2019-04-05T00:56:08.647Z,7.51
2019-04-05T00:58:38.332Z,7.70
2019-04-05T01:01:07.581Z,7.40
2019-04-05T01:03:39.035Z,7.44
2019-04-05T01:06:08.443Z,7.57
2019-04-05T01:08:49.909Z,7.70
2019-04-05T01:11:21.081Z,7.56
2019-04-05T01:13:51.943Z,7.89
2019-04-05T01:16:21.213Z,7.64
2019-04-05T01:18:51.515Z,7.88
2019-04-05T01:21:23.609Z,7.99
2019-04-05T01:23:53.980Z,7.80
2019-04-05T01:26:23.972Z,8.00
2019-04-05T01:28:55.234Z,7.76
2019-04-05T01:31:25.770Z,7.91
2019-04-05T01:33:55.294Z,7.98
2019-04-05T01:36:27.595Z,8.11
2019-04-05T01:39:00.008Z,8.18
2019-04-05T01:41:32.438Z,8.44
2019-04-05T01:44:04.037Z,8.71
2019-04-05T01:46:33.456Z,8.85
2019-04-05T01:49:12.908Z,8.30
2019-04-05T01:51:42.197Z,8.30
2019-04-05T01:54:49.449Z,7.86
2019-04-05T01:56:57.910Z,7.88
2019-04-05T01:59:31.029Z,8.17
2019-04-05T02:02:14.143Z,8.03
2019-04-05T02:04:46.525Z,8.14
2019-04-05T02:07:17.964Z,8.41
2019-04-05T02:09:47.684Z,7.98
2019-04-05T02:12:26.888Z,7.68
2019-04-05T02:14:57.261Z,8.22
2019-04-05T02:17:36.041Z,8.25
2019-04-05T02:20:34.681Z,8.00
2019-04-05T02:23:04.241Z,7.90
2019-04-05T02:25:35.506Z,7.67
2019-04-05T02:28:08.138Z,7.71
2019-04-05T02:30:37.421Z,7.81
2019-04-05T02:33:06.609Z,7.76
2019-04-05T02:35:39.180Z,7.64
2019-04-05T02:38:12.810Z,8.32
2019-04-05T02:40:47.707Z,8.60
2019-04-05T02:43:18.752Z,8.86
2019-04-05T02:45:50.691Z,9.05
2019-04-05T02:48:20.830Z,9.15
2019-04-05T02:51:03.038Z,9.05
2019-04-05T02:53:52.925Z,8.98
2019-04-05T02:56:23.007Z,9.00
2019-04-05T02:58:52.396Z,9.16
2019-04-05T03:01:23.287Z,9.27
2019-04-05T03:03:52.552Z,9.25
2019-04-05T03:06:28.950Z,9.23
2019-04-05T03:08:58.390Z,9.38
2019-04-05T03:11:30.387Z,9.38
2019-04-05T03:14:01.904Z,9.26
2019-04-05T03:16:57.631Z,9.12
2019-04-05T03:19:31.952Z,9.25
2019-04-05T03:22:11.689Z,9.06
2019-04-05T03:27:22.964Z,8.87
2019-04-05T03:29:58.972Z,8.85
2019-04-05T03:32:51.169Z,9.01
2019-04-05T03:35:22.813Z,8.72
2019-04-05T03:37:59.726Z,8.59
2019-04-05T03:40:41.299Z,8.70
2019-04-05T03:43:13.888Z,8.51
2019-04-05T03:45:47.168Z,8.25
2019-04-05T03:48:18.237Z,8.39
2019-04-05T03:50:47.608Z,8.37
2019-04-05T03:53:16.861Z,8.55
2019-04-05T03:55:49.355Z,8.70
2019-04-05T03:58:21.315Z,8.85
2019-04-05T04:00:50.893Z,8.61
2019-04-05T04:03:20.254Z,8.89
2019-04-05T04:05:57.077Z,8.77
2019-04-05T04:08:29.515Z,8.57
2019-04-05T04:11:01.781Z,8.48
2019-04-05T04:13:34.124Z,8.82
2019-04-05T04:16:07.357Z,9.06
2019-04-05T04:18:55.597Z,8.73
2019-04-05T04:21:39.176Z,9.01
2019-04-05T04:24:11.363Z,8.69
2019-04-05T04:26:44.180Z,8.36
2019-04-05T04:29:16.265Z,7.79
2019-04-05T04:31:47.858Z,7.70
2019-04-05T04:34:19.280Z,7.86
2019-04-05T04:36:48.807Z,7.88
2019-04-05T04:39:21.274Z,8.30
2019-04-05T04:41:54.035Z,8.51
2019-04-05T04:44:24.634Z,8.38
2019-04-05T04:46:59.047Z,8.23
2019-04-05T04:49:25.517Z,8.63
2019-04-05T04:51:58.051Z,8.72
2019-04-05T04:54:27.965Z,8.43
2019-04-05T04:56:57.273Z,8.30
2019-04-05T04:59:29.353Z,8.52
2019-04-05T05:01:58.960Z,8.57
2019-04-05T05:04:29.714Z,8.79
2019-04-05T05:06:58.912Z,8.80
2019-04-05T05:09:31.071Z,8.88
2019-04-05T05:12:00.474Z,8.53
2019-04-05T05:14:29.915Z,8.61
2019-04-05T05:17:02.833Z,8.72
2019-04-05T05:19:32.794Z,8.98
2019-04-05T05:22:04.002Z,8.76
2019-04-05T05:24:33.326Z,8.77
2019-04-05T05:27:02.636Z,8.66
2019-04-05T05:29:31.987Z,8.80
2019-04-05T05:32:01.369Z,8.91
2019-04-05T05:34:33.548Z,8.89
2019-04-05T05:37:02.967Z,8.80
2019-04-05T05:39:32.402Z,8.80
2019-04-05T05:42:03.613Z,8.98
2019-04-05T05:44:33.316Z,8.79
2019-04-05T05:47:02.598Z,8.93
2019-04-05T05:49:32.791Z,9.00
2019-04-05T05:52:05.130Z,9.15
2019-04-05T05:54:34.413Z,9.16
2019-04-05T05:57:04.097Z,9.28
2019-04-05T05:59:33.370Z,9.18
2019-04-05T06:02:13.837Z,8.75
2019-04-05T06:04:44.858Z,9.03
2019-04-05T06:07:14.122Z,9.16
2019-04-05T06:09:43.423Z,9.24
2019-04-05T06:12:13.206Z,9.23
2019-04-05T06:14:42.453Z,8.69
2019-04-05T06:17:12.494Z,8.46
2019-04-05T06:19:42.281Z,8.51
2019-04-05T06:22:11.595Z,8.55
2019-04-05T06:24:41.639Z,8.71
2019-04-05T06:27:11.387Z,8.81
2019-04-05T06:29:42.377Z,9.14
2019-04-05T06:32:12.315Z,8.96
2019-04-05T06:34:42.040Z,8.37
2019-04-05T06:37:11.307Z,8.77
2019-04-05T06:39:42.660Z,8.44
2019-04-05T06:42:11.928Z,8.43
2019-04-05T06:44:43.645Z,7.99
2019-04-05T06:47:15.344Z,7.95
2019-04-05T06:49:46.718Z,8.60
2019-04-05T06:52:15.920Z,8.99
2019-04-05T06:54:46.317Z,9.16
2019-04-05T06:57:18.286Z,9.20
2019-04-05T06:59:47.549Z,9.26
2019-04-05T07:02:18.407Z,9.35
2019-04-05T07:04:47.818Z,9.74
2019-04-05T07:07:17.956Z,9.61
2019-04-05T07:09:47.678Z,9.65
2019-04-05T07:12:20.537Z,9.94
2019-04-05T07:14:49.732Z,10.00
2019-04-05T07:17:19.331Z,9.98
2019-04-05T07:19:51.396Z,9.84
2019-04-05T07:22:34.178Z,9.30
2019-04-05T07:24:52.165Z,9.71
2019-04-05T07:27:24.318Z,9.81
2019-04-05T07:29:53.556Z,10.03
2019-04-05T07:32:22.890Z,10.26
2019-04-05T07:34:52.184Z,10.53
2019-04-05T07:37:21.473Z,10.60
2019-04-05T07:39:51.060Z,10.86
2019-04-05T07:42:21.074Z,10.75
2019-04-05T07:44:54.488Z,10.90
2019-04-05T07:47:24.108Z,11.03
2019-04-05T07:49:53.380Z,11.12
2019-04-05T07:52:22.650Z,11.22
2019-04-05T07:54:52.262Z,11.26
2019-04-05T07:57:22.006Z,11.48
2019-04-05T07:59:52.557Z,11.51
2019-04-05T08:02:22.148Z,11.56
2019-04-05T08:04:54.702Z,11.70
2019-04-05T08:07:24.115Z,11.72
2019-04-05T08:09:54.076Z,11.88
2019-04-05T08:12:23.444Z,11.89
2019-04-05T08:14:53.028Z,11.75
2019-04-05T08:17:22.650Z,11.84
2019-04-05T08:19:53.197Z,11.93
2019-04-05T08:22:23.822Z,12.00
2019-04-05T08:24:53.367Z,11.77
2019-04-05T08:27:24.130Z,11.75
2019-04-05T08:29:55.601Z,11.88
2019-04-05T08:32:25.184Z,12.09
2019-04-05T08:34:54.401Z,12.19
2019-04-05T08:37:23.652Z,12.31
2019-04-05T08:39:53.045Z,12.11
2019-04-05T08:42:22.123Z,12.16
2019-04-05T08:44:51.246Z,12.39
2019-04-05T08:47:22.562Z,12.07
2019-04-05T08:49:52.922Z,11.92
2019-04-05T08:52:21.990Z,12.16
2019-04-05T08:54:51.392Z,12.39
2019-04-05T08:57:20.482Z,12.44
2019-04-05T08:59:50.081Z,12.49
2019-04-05T09:02:20.094Z,12.73
2019-04-05T09:04:49.799Z,12.72
2019-04-05T09:07:19.325Z,12.44
2019-04-05T09:09:50.639Z,12.68
2019-04-05T09:12:20.237Z,12.75
2019-04-05T09:14:49.315Z,12.71
2019-04-05T09:17:19.696Z,12.33
2019-04-05T09:19:48.798Z,12.55
2019-04-05T09:22:19.415Z,12.44
2019-04-05T09:24:50.047Z,12.65
2019-04-05T09:27:19.155Z,12.62
2019-04-05T09:29:48.539Z,12.70
2019-04-05T09:32:17.696Z,12.66
2019-04-05T09:34:46.813Z,12.69
2019-04-05T09:37:16.224Z,12.68
2019-04-05T09:39:45.326Z,12.85
2019-04-05T09:42:16.055Z,12.25
2019-04-05T09:44:45.428Z,12.67
2019-04-05T09:47:14.630Z,12.73
2019-04-05T09:49:45.666Z,12.73
2019-04-05T09:52:14.935Z,12.56
2019-04-05T09:54:44.052Z,13.01
2019-04-05T09:57:16.532Z,13.08
2019-04-05T09:59:45.610Z,13.11
2019-04-05T10:02:14.822Z,12.83
2019-04-05T10:04:47.261Z,13.31
2019-04-05T10:07:16.424Z,13.10
2019-04-05T10:09:45.558Z,13.35
2019-04-05T10:12:17.149Z,13.48
2019-04-05T10:14:48.455Z,13.74
2019-04-05T10:17:17.581Z,13.53
2019-04-05T10:19:50.128Z,13.59
2019-04-05T10:22:18.056Z,13.97
2019-04-05T10:24:48.102Z,14.06
2019-04-05T10:27:17.503Z,14.12
2019-04-05T10:29:49.360Z,14.28
2019-04-05T10:32:17.451Z,14.29
2019-04-05T10:34:46.841Z,14.11
2019-04-05T10:37:19.995Z,14.34
2019-04-05T10:39:49.093Z,14.50
2019-04-05T10:42:32.534Z,14.40
2019-04-05T10:45:06.574Z,14.40
2019-04-05T10:47:35.973Z,14.45
2019-04-05T10:50:10.660Z,14.43
2019-04-05T10:52:39.822Z,14.05
2019-04-05T10:55:10.199Z,14.08
2019-04-05T10:57:39.335Z,14.39
2019-04-05T11:00:11.129Z,14.46
2019-04-05T11:02:40.508Z,14.53
2019-04-05T11:05:09.768Z,14.42
2019-04-05T11:07:42.167Z,14.43
2019-04-05T11:10:11.598Z,14.47
2019-04-05T11:12:40.718Z,14.52
2019-04-05T11:15:10.614Z,14.52
2019-04-05T11:17:42.267Z,14.52
2019-04-05T11:20:21.190Z,14.91
2019-04-05T11:22:46.370Z,14.99
2019-04-05T11:25:14.445Z,15.15
2019-04-05T11:27:43.881Z,14.94
2019-04-05T11:30:19.577Z,15.03
2019-04-05T11:32:49.833Z,15.03
2019-04-05T11:35:21.483Z,14.87
2019-04-05T11:37:51.913Z,14.90
2019-04-05T11:40:24.140Z,14.34
2019-04-05T11:42:52.689Z,14.60
2019-04-05T11:45:22.557Z,14.81
2019-04-05T11:47:53.722Z,14.63
2019-04-05T11:50:33.991Z,14.63
2019-04-05T11:52:56.548Z,14.64
2019-04-05T11:55:27.003Z,14.73
2019-04-05T11:58:01.180Z,14.71
2019-04-05T12:00:58.692Z,14.74
2019-04-05T12:03:30.020Z,14.78
2019-04-05T12:05:59.224Z,14.85
2019-04-05T12:08:28.373Z,14.68
2019-04-05T12:10:59.714Z,14.69
2019-04-05T12:13:29.108Z,14.72
2019-04-05T12:15:58.481Z,14.53
2019-04-05T12:18:29.840Z,14.54
2019-04-05T12:21:00.640Z,14.54
2019-04-05T12:23:32.554Z,14.63
2019-04-05T12:26:03.905Z,14.65
2019-04-05T12:28:32.897Z,14.46
2019-04-05T12:31:02.043Z,14.32
2019-04-05T12:33:31.124Z,14.39
2019-04-05T12:36:05.010Z,14.57
2019-04-05T12:38:33.039Z,14.42
2019-04-05T12:41:03.663Z,14.31
2019-04-05T12:43:36.507Z,14.30
2019-04-05T12:46:08.929Z,14.04
2019-04-05T12:48:39.660Z,14.04
2019-04-05T12:51:09.723Z,13.75
2019-04-05T12:53:39.160Z,13.75
2019-04-05T12:56:11.733Z,13.90
2019-04-05T12:58:40.892Z,13.31
2019-04-05T13:01:10.015Z,13.48
2019-04-05T13:03:39.500Z,13.45
2019-04-05T13:06:08.794Z,13.14
2019-04-05T13:08:40.814Z,13.40
2019-04-05T13:11:12.766Z,13.61
2019-04-05T13:13:41.943Z,13.78
2019-04-05T13:16:11.134Z,13.84
2019-04-05T13:18:45.427Z,13.56
2019-04-05T13:21:15.757Z,13.46
2019-04-05T13:23:47.194Z,13.70
2019-04-05T13:26:16.587Z,13.94
2019-04-05T13:28:49.345Z,13.89
2019-04-05T13:31:21.441Z,13.76
2019-04-05T13:33:55.201Z,13.56
2019-04-05T13:36:24.368Z,13.50
2019-04-05T13:38:55.041Z,13.41
2019-04-05T13:41:25.220Z,13.11
2019-04-05T13:43:55.579Z,13.25
2019-04-05T13:46:26.242Z,13.50
2019-04-05T13:48:55.696Z,13.43
2019-04-05T13:51:28.111Z,13.33
2019-04-05T13:53:57.565Z,13.39
2019-04-05T13:56:26.997Z,13.58
2019-04-05T13:58:56.166Z,13.17
2019-04-05T14:01:25.290Z,13.46
2019-04-05T14:03:57.948Z,13.32
2019-04-05T14:06:29.900Z,13.34
2019-04-05T14:09:01.376Z,13.45
2019-04-05T14:11:30.806Z,13.20
2019-04-05T14:14:00.035Z,13.38
2019-04-05T14:16:32.293Z,13.16
2019-04-05T14:19:01.953Z,13.23
2019-04-05T14:21:40.260Z,13.27
2019-04-05T14:24:05.904Z,13.47
2019-04-05T14:26:38.155Z,13.30
2019-04-05T14:29:12.384Z,13.33
2019-04-05T14:31:44.973Z,13.49
2019-04-05T14:34:34.744Z,12.90
2019-04-05T14:37:10.688Z,13.08
2019-04-05T14:39:39.850Z,13.20
2019-04-05T14:42:12.331Z,12.95
2019-04-05T14:44:44.573Z,12.72
2019-04-05T14:47:16.672Z,12.61
2019-04-05T14:49:46.877Z,12.52
2019-04-05T14:52:16.281Z,12.78
2019-04-05T14:54:45.473Z,12.79
2019-04-05T14:57:14.882Z,13.17
2019-04-05T14:59:44.003Z,13.13
2019-04-05T15:02:14.794Z,13.05
2019-04-05T15:04:44.228Z,12.87
2019-04-05T15:07:15.273Z,13.00
2019-04-05T15:09:47.391Z,12.79
2019-04-05T15:12:19.237Z,12.61
2019-04-05T15:14:48.456Z,13.08
2019-04-05T15:17:17.964Z,13.26
2019-04-05T15:19:49.242Z,12.81
2019-04-05T15:22:20.570Z,12.84
2019-04-05T15:24:49.224Z,12.83
2019-04-05T15:27:21.332Z,12.71
2019-04-05T15:29:51.380Z,12.90
2019-04-05T15:32:20.885Z,12.93
2019-04-05T15:34:50.812Z,11.93
2019-04-05T15:37:22.437Z,11.82
2019-04-05T15:39:51.778Z,12.07
2019-04-05T15:42:21.349Z,12.29
2019-04-05T15:44:50.650Z,12.43
2019-04-05T15:47:23.222Z,12.66
2019-04-05T15:49:51.876Z,12.55
2019-04-05T15:52:27.860Z,12.03
2019-04-05T15:54:58.068Z,11.66
2019-04-05T15:57:33.325Z,11.77
2019-04-05T16:00:12.595Z,12.24
2019-04-05T16:02:45.076Z,12.00
2019-04-05T16:05:14.672Z,11.60
2019-04-05T16:07:45.552Z,11.54
2019-04-05T16:10:19.299Z,11.91
2019-04-05T16:12:51.529Z,12.22
2019-04-05T16:15:22.385Z,12.28
2019-04-05T16:17:51.543Z,12.09
2019-04-05T16:20:21.599Z,11.40
2019-04-05T16:22:51.756Z,10.95
2019-04-05T16:25:20.972Z,11.03
2019-04-05T16:27:52.847Z,11.49
2019-04-05T16:30:25.139Z,11.23
2019-04-05T16:32:54.315Z,11.15
2019-04-05T16:35:23.397Z,11.20
2019-04-05T16:37:55.548Z,11.18
2019-04-05T16:40:24.919Z,11.61
2019-04-05T16:43:02.301Z,11.44
2019-04-05T16:45:25.447Z,11.66
2019-04-05T16:48:02.788Z,11.59
2019-04-05T16:50:35.399Z,11.91
2019-04-05T16:53:07.679Z,11.87
2019-04-05T16:55:40.698Z,11.94
2019-04-05T16:58:11.451Z,12.10
2019-04-05T17:00:41.072Z,11.75
2019-04-05T17:03:10.213Z,11.58
2019-04-05T17:05:39.302Z,11.54
2019-04-05T17:08:11.415Z,11.67
2019-04-05T17:10:40.616Z,11.75
2019-04-05T17:13:11.343Z,11.55
2019-04-05T17:15:40.709Z,11.51
2019-04-05T17:18:09.966Z,11.46
2019-04-05T17:20:40.757Z,11.62
2019-04-05T17:23:10.078Z,10.94
2019-04-05T17:25:41.024Z,10.81
2019-04-05T17:28:12.899Z,10.66
2019-04-05T17:30:42.246Z,10.51
2019-04-05T17:33:11.351Z,10.27
2019-04-05T17:35:43.600Z,10.13
2019-04-05T17:38:13.012Z,10.42
2019-04-05T17:40:42.129Z,10.92
2019-04-05T17:43:12.838Z,11.16
2019-04-05T17:45:42.290Z,11.41
2019-04-05T17:48:11.374Z,11.49
2019-04-05T17:50:41.602Z,11.63
2019-04-05T17:53:13.111Z,11.71
2019-04-05T17:55:43.425Z,11.82
2019-04-05T17:58:12.850Z,11.94
2019-04-05T18:00:42.296Z,12.04
2019-04-05T18:03:11.405Z,11.94
2019-04-05T18:05:40.499Z,12.10
2019-04-05T18:08:10.161Z,12.17
2019-04-05T18:10:42.223Z,12.23
2019-04-05T18:13:13.855Z,12.06
2019-04-05T18:15:52.483Z,12.02
2019-04-05T18:18:14.079Z,12.09
2019-04-05T18:20:44.896Z,12.25
2019-04-05T18:23:24.810Z,12.26
2019-04-05T18:25:47.343Z,12.35
2019-04-05T18:28:16.438Z,12.37
2019-04-05T18:30:49.088Z,12.40
2019-04-05T18:33:20.091Z,12.44
2019-04-05T18:35:49.460Z,12.32
2019-04-05T18:38:21.653Z,12.36
2019-04-05T18:40:52.861Z,12.47
2019-04-05T18:43:22.050Z,12.51
2019-04-05T18:45:51.228Z,12.40
2019-04-05T18:48:27.858Z,12.43
2019-04-05T18:50:57.307Z,12.21
2019-04-05T18:53:37.579Z,12.45
2019-04-05T18:56:09.243Z,12.52
2019-04-05T18:58:41.380Z,12.46
2019-04-05T19:01:13.858Z,12.43
2019-04-05T19:03:46.106Z,12.33
2019-04-05T19:06:27.675Z,12.23
2019-04-05T19:08:56.787Z,12.31
2019-04-05T19:11:25.885Z,11.86
2019-04-05T19:14:01.209Z,12.09
2019-04-05T19:16:29.194Z,12.10
2019-04-05T19:18:58.301Z,11.96
2019-04-05T19:21:27.475Z,12.18
2019-04-05T19:24:12.802Z,12.21
2019-04-05T19:26:48.737Z,12.25
2019-04-05T19:29:19.500Z,12.00
2019-04-05T19:49:34.761Z,12.00
2019-04-05T19:52:06.857Z,12.07
2019-04-05T19:54:36.374Z,11.95
2019-04-05T19:57:08.644Z,12.08
2019-04-05T19:59:39.905Z,12.17
2019-04-05T20:02:09.333Z,11.87
2019-04-05T20:04:38.384Z,12.13
2019-04-05T20:07:09.402Z,12.27
2019-04-05T20:09:38.714Z,12.29
2019-04-05T20:12:09.285Z,12.03
2019-04-05T20:14:40.478Z,12.00
2019-04-05T20:17:09.860Z,12.15
2019-04-05T20:19:38.961Z,12.29
2019-04-05T20:22:08.073Z,12.24
2019-04-05T20:24:37.450Z,12.15
2019-04-05T20:27:07.605Z,12.33
2019-04-05T20:29:36.777Z,12.30
2019-04-05T20:32:08.936Z,12.00
2019-04-05T20:34:38.024Z,12.06
2019-04-05T20:37:07.615Z,12.23
2019-04-05T20:39:37.000Z,12.14
2019-04-05T20:42:09.039Z,12.18
2019-04-05T20:44:38.160Z,12.20
2019-04-05T20:47:07.516Z,12.22
2019-04-05T20:49:37.765Z,12.20
2019-04-05T20:52:06.881Z,12.15
2019-04-05T20:54:36.271Z,12.08
2019-04-05T20:57:05.623Z,12.27
2019-04-05T20:59:34.741Z,12.34
2019-04-05T21:02:04.852Z,12.23
2019-04-05T21:04:37.890Z,12.36
2019-04-05T21:07:06.990Z,12.31
2019-04-05T21:09:36.100Z,11.98
2019-04-05T21:12:09.316Z,12.00
2019-04-05T21:14:38.404Z,11.79
2019-04-05T21:17:10.769Z,12.11
2019-04-05T21:19:53.695Z,11.95
2019-04-05T21:22:26.303Z,12.07
2019-04-05T21:24:58.829Z,12.09
2019-04-05T21:27:31.035Z,11.87
2019-04-05T21:30:00.137Z,11.87
2019-04-05T21:32:29.273Z,11.94
2019-04-05T21:35:00.587Z,11.84
2019-04-05T21:37:31.107Z,11.91
2019-04-05T21:40:00.418Z,12.07
2019-04-05T21:42:31.314Z,12.12
2019-04-05T21:45:00.724Z,12.25
2019-04-05T21:47:29.847Z,12.29
2019-04-05T21:50:00.165Z,12.27
2019-04-05T21:52:29.164Z,12.22
2019-04-05T21:55:01.364Z,12.36
2019-04-05T21:57:36.212Z,12.36
2019-04-05T22:00:15.088Z,12.37
2019-04-05T22:02:44.156Z,12.26
2019-04-05T22:05:16.164Z,11.99
2019-04-05T22:07:46.580Z,12.03
2019-04-05T22:10:15.646Z,11.91
2019-04-05T22:12:44.725Z,12.13
2019-04-05T22:15:13.926Z,12.20
2019-04-05T22:17:43.064Z,12.21
2019-04-05T22:20:15.755Z,11.91
2019-04-05T22:22:47.915Z,11.75
2019-04-05T22:25:19.182Z,11.98
2019-04-05T22:27:48.499Z,11.96
2019-04-05T22:30:17.774Z,12.05
2019-04-05T22:32:49.933Z,11.85
2019-04-05T22:35:28.236Z,12.01
2019-04-05T22:38:22.264Z,12.03
2019-04-05T22:41:03.130Z,11.77
2019-04-05T22:43:32.916Z,11.79
2019-04-05T22:46:05.821Z,11.51
2019-04-05T22:48:34.844Z,11.76
2019-04-05T22:51:06.525Z,11.92
2019-04-05T22:53:37.168Z,11.94
2019-04-05T22:56:06.244Z,11.92
2019-04-05T22:58:35.322Z,11.91
2019-04-05T23:01:04.520Z,11.90
2019-04-05T23:03:33.856Z,11.85
2019-04-05T23:06:04.493Z,11.61
2019-04-05T23:08:33.590Z,11.69
2019-04-05T23:11:05.529Z,11.71
2019-04-05T23:13:36.621Z,11.67
2019-04-05T23:16:11.491Z,11.63
2019-04-05T23:18:43.742Z,11.58
2019-04-05T23:21:14.102Z,11.53
2019-04-05T23:23:55.121Z,11.51
2019-04-05T23:26:24.452Z,11.47
2019-04-05T23:28:56.352Z,11.41
2019-04-05T23:31:25.435Z,11.42
2019-04-05T23:33:55.851Z,11.40
2019-04-05T23:36:37.355Z,11.38
2019-04-05T23:39:12.104Z,11.36
2019-04-05T23:41:46.544Z,11.30
2019-04-05T23:44:18.732Z,11.30
2019-04-05T23:46:53.453Z,11.32
2019-04-05T23:49:24.317Z,11.28
2019-04-05T23:51:53.360Z,11.24
2019-04-05T23:54:25.705Z,11.20
2019-04-05T23:57:09.741Z,11.23
2019-04-05T23:59:41.339Z,11.23
